Time;durP1;ratioP1;P1;durP2;ratioP2;P2;SDS_P1;SDS_P2;PMS_P1;PMS_P2;Temp;Humidity;BMP_temperature;BMP_pressure;BME280_temperature;BME280_humidity;BME280_pressure;Samples;Min_cycle;Max_cycle;Signal;HPM_P1;HPM_P2
2022/02/09 00:04:53;;;;;;;18.90;7.90;;;;;;;4.94;76.82;99312.96;106115;1273;97867;-72
2022/02/09 00:07:39;;;;;;;15.10;7.00;;;;;;;4.94;77.11;99315.77;106073;1273;107720;-71
2022/02/09 00:10:08;;;;;;;15.10;6.10;;;;;;;4.94;77.12;99322.44;106105;1273;98011;-73
2022/02/09 00:17:52;;;;;;;14.00;5.10;;;;;;;4.93;76.82;99333.16;106121;1273;97953;-74
2022/02/09 01:42:24;;;;;;;21.90;9.50;;;;;;;5.00;76.92;99407.93;106203;1274;97983;-72
2022/02/09 01:57:19;;;;;;;20.40;8.80;;;;;;;4.78;77.07;99411.52;106049;1273;108332;-73
2022/02/09 01:59:51;;;;;;;18.70;8.50;;;;;;;4.75;77.03;99412.14;106002;1273;99416;-72
2022/02/09 02:02:23;;;;;;;20.00;9.30;;;;;;;4.73;77.07;99416.48;106132;1274;95177;-72
2022/02/09 02:04:52;;;;;;;18.20;8.00;;;;;;;4.70;77.03;99419.08;106145;1274;111358;-72
2022/02/09 02:07:58;;;;;;;20.20;8.60;;;;;;;4.66;77.11;99421.88;106190;1274;97969;-73
2022/02/09 02:10:16;;;;;;;19.90;8.50;;;;;;;4.65;76.91;99426.86;106140;1274;107658;-73
2022/02/09 02:12:51;;;;;;;18.30;8.30;;;;;;;4.61;77.06;99427.52;106183;1274;97737;-71
2022/02/09 02:16:19;;;;;;;19.10;8.60;;;;;;;4.59;76.83;99430.75;106142;1274;97879;-73
2022/02/09 02:18:16;;;;;;;19.50;8.70;;;;;;;4.56;76.92;99433.02;106074;1274;111404;-72
2022/02/09 02:28:56;;;;;;;18.10;8.50;;;;;;;4.47;77.00;99453.73;106236;1274;95255;-73
2022/02/09 02:32:01;;;;;;;16.80;8.20;;;;;;;4.45;77.09;99454.88;106089;1274;111436;-73
2022/02/09 03:15:38;;;;;;;16.30;5.40;;;;;;;4.10;77.28;99513.34;106166;1274;95879;-73
2022/02/09 03:21:17;;;;;;;13.20;4.80;;;;;;;4.06;77.20;99522.45;106107;1274;97879;-73
2022/02/09 03:23:54;;;;;;;16.40;4.90;;;;;;;4.02;77.13;99522.22;106121;1274;97860;-73
2022/02/09 03:47:14;;;;;;;13.90;5.30;;;;;;;3.89;77.30;99529.73;106170;1274;107810;-72
2022/02/09 03:58:00;;;;;;;16.80;6.50;;;;;;;3.85;77.32;99551.99;105937;1280;98147;-73
2022/02/09 04:00:34;;;;;;;13.00;5.30;;;;;;;3.83;77.39;99540.84;105862;1280;107756;-72
2022/02/09 04:03:13;;;;;;;16.60;5.90;;;;;;;3.83;77.28;99544.16;106088;1274;97964;-72
2022/02/09 04:05:47;;;;;;;15.90;6.10;;;;;;;3.84;77.47;99543.95;106228;1274;97976;-72
2022/02/09 04:08:26;;;;;;;16.30;5.80;;;;;;;3.85;77.23;99540.42;106191;1274;112461;-72
2022/02/09 04:11:12;;;;;;;15.90;5.90;;;;;;;3.86;77.38;99540.56;106182;1273;97986;-71
2022/02/09 04:16:45;;;;;;;15.40;6.20;;;;;;;3.89;77.55;99541.29;106084;1273;97884;-72
2022/02/09 04:43:51;;;;;;;14.50;5.70;;;;;;;3.98;77.42;99549.92;106031;1274;98320;-73
2022/02/09 04:54:37;;;;;;;15.30;6.10;;;;;;;4.07;77.66;99541.73;106047;1274;107497;-73
2022/02/09 04:57:16;;;;;;;15.10;5.20;;;;;;;4.08;77.75;99547.45;106130;1274;97913;-73
2022/02/09 05:27:03;;;;;;;16.70;6.20;;;;;;;4.17;77.52;99556.23;106136;1274;95193;-73
2022/02/09 05:29:33;;;;;;;17.80;6.60;;;;;;;4.18;77.69;99554.09;106087;1274;111449;-73
2022/02/09 05:32:00;;;;;;;18.80;6.30;;;;;;;4.19;77.60;99551.80;106067;1274;97885;-74
2022/02/09 05:34:28;;;;;;;16.20;6.30;;;;;;;4.21;77.39;99561.55;106080;1274;107726;-73
2022/02/09 05:36:56;;;;;;;16.80;6.20;;;;;;;4.23;77.55;99560.58;105981;1274;95294;-72
2022/02/09 05:39:24;;;;;;;17.30;6.50;;;;;;;4.25;77.57;99562.45;106088;1274;95160;-74
2022/02/09 05:41:52;;;;;;;15.40;5.70;;;;;;;4.26;77.80;99575.02;106253;1274;111419;-74
2022/02/09 05:44:19;;;;;;;14.90;5.90;;;;;;;4.27;77.66;99578.50;106169;1275;97918;-74
2022/02/09 05:49:44;;;;;;;17.80;6.50;;;;;;;4.30;77.73;99585.39;106224;1274;97857;-73
2022/02/09 05:52:30;;;;;;;16.40;6.30;;;;;;;4.31;77.68;99587.14;106236;1274;97914;-74
2022/02/09 05:58:11;;;;;;;16.30;6.60;;;;;;;4.30;77.59;99581.38;106090;1274;97889;-74
2022/02/09 06:00:47;;;;;;;18.90;7.60;;;;;;;4.29;77.73;99583.70;106125;1274;107782;-74
2022/02/09 06:03:18;;;;;;;18.60;7.70;;;;;;;4.29;77.63;99584.40;106177;1274;97923;-75
2022/02/09 06:05:47;;;;;;;23.00;7.50;;;;;;;4.28;77.72;99582.84;107039;1274;97889;-75
2022/02/09 06:08:19;;;;;;;18.60;8.10;;;;;;;4.29;77.52;99581.41;106233;1274;111295;-73
2022/02/09 06:11:23;;;;;;;23.00;8.10;;;;;;;4.28;77.67;99579.50;106258;1274;98007;-71
2022/02/09 06:22:08;;;;;;;18.50;6.50;;;;;;;4.25;77.64;99590.84;106093;1274;111317;-75
2022/02/09 06:24:38;;;;;;;23.50;8.50;;;;;;;4.24;77.75;99585.64;106105;1274;95207;-74
2022/02/09 06:27:12;;;;;;;18.40;7.00;;;;;;;4.23;77.86;99577.95;106034;1274;108731;-74
2022/02/09 06:29:45;;;;;;;17.70;7.60;;;;;;;4.24;77.87;99587.94;106005;1274;97940;-74
2022/02/09 06:32:21;;;;;;;17.30;6.90;;;;;;;4.26;77.83;99597.52;106063;1274;98261;-75
2022/02/09 06:34:52;;;;;;;17.60;6.50;;;;;;;4.28;77.81;99602.36;106121;1274;111501;-75
2022/02/09 06:37:24;;;;;;;19.20;6.60;;;;;;;4.31;77.80;99607.65;106007;1274;95230;-74
2022/02/09 06:39:58;;;;;;;17.60;6.40;;;;;;;4.36;77.79;99605.38;106067;1274;107692;-74
2022/02/09 06:42:30;;;;;;;14.60;5.80;;;;;;;4.40;77.76;99609.24;106102;1274;97970;-75
2022/02/09 06:45:06;;;;;;;14.50;6.50;;;;;;;4.45;77.73;99614.01;106099;1274;97108;-74
2022/02/09 06:47:36;;;;;;;20.00;7.00;;;;;;;4.50;77.80;99613.96;106113;1274;111368;-75
2022/02/09 06:50:13;;;;;;;16.90;6.70;;;;;;;4.56;77.85;99621.30;106151;1274;97853;-75
2022/02/09 06:52:45;;;;;;;17.20;6.50;;;;;;;4.61;77.89;99626.04;106139;1274;107743;-75
2022/02/09 06:55:20;;;;;;;18.20;7.40;;;;;;;4.65;77.87;99627.30;106109;1274;97850;-74
2022/02/09 07:00:24;;;;;;;16.10;6.60;;;;;;;4.72;77.84;99635.25;106102;1274;111326;-77
2022/02/09 07:02:51;;;;;;;20.00;6.90;;;;;;;4.73;77.76;99635.71;106139;1274;95823;-74
2022/02/09 07:05:19;;;;;;;16.90;5.80;;;;;;;4.74;77.89;99638.16;106138;1274;107838;-74
2022/02/09 07:07:48;;;;;;;16.50;6.00;;;;;;;4.76;77.82;99636.67;106058;1274;97909;-75
2022/02/09 07:10:17;;;;;;;16.50;6.70;;;;;;;4.76;77.95;99637.89;106139;1274;97909;-75
2022/02/09 07:12:45;;;;;;;19.80;7.10;;;;;;;4.77;77.83;99635.23;106188;1274;111222;-77
2022/02/09 07:15:25;;;;;;;21.30;6.70;;;;;;;4.78;78.02;99633.98;106132;1274;95472;-75
2022/02/09 07:18:03;;;;;;;18.30;7.60;;;;;;;4.81;77.91;99631.04;106080;1274;109501;-75
2022/02/09 07:20:46;;;;;;;17.00;7.20;;;;;;;4.83;77.90;99630.10;106079;1274;97850;-76
2022/02/09 07:24:00;;;;;;;19.10;7.40;;;;;;;4.84;77.91;99632.85;106077;1274;95261;-75
2022/02/09 07:28:39;;;;;;;19.20;7.10;;;;;;;4.89;77.86;99640.38;106062;1274;95800;-74
2022/02/09 07:31:09;;;;;;;19.00;7.30;;;;;;;4.90;77.91;99641.52;106043;1273;107503;-74
2022/02/09 07:33:40;;;;;;;19.30;7.30;;;;;;;4.92;77.92;99635.33;106137;1274;97909;-74
2022/02/09 07:36:08;;;;;;;17.90;7.20;;;;;;;4.94;77.88;99632.44;106087;1274;97972;-75
2022/02/09 07:38:37;;;;;;;16.60;7.10;;;;;;;4.97;78.00;99637.61;106201;1274;111458;-75
2022/02/09 07:41:05;;;;;;;14.30;5.90;;;;;;;4.99;78.12;99648.59;106244;1274;97901;-75
2022/02/09 07:46:38;;;;;;;18.30;8.40;;;;;;;5.03;78.05;99649.31;106120;1274;97960;-74
2022/02/09 07:49:25;;;;;;;17.60;7.10;;;;;;;5.05;78.11;99644.86;106079;1274;95285;-75
2022/02/09 07:54:24;;;;;;;19.90;8.80;;;;;;;5.14;77.96;99643.95;106062;1274;96104;-75
2022/02/09 07:56:52;;;;;;;24.00;9.20;;;;;;;5.18;78.07;99649.77;106023;1274;107486;-73
2022/02/09 07:59:20;;;;;;;24.40;9.70;;;;;;;5.20;78.19;99640.70;106029;1274;96810;-75
2022/02/09 08:01:48;;;;;;;23.40;10.60;;;;;;;5.21;78.05;99636.45;106105;1274;97946;-75
2022/02/09 08:04:16;;;;;;;20.30;8.60;;;;;;;5.23;78.09;99637.41;106013;1274;111418;-75
2022/02/09 08:06:46;;;;;;;21.40;10.00;;;;;;;5.27;78.17;99645.16;106042;1274;97768;-74
2022/02/09 08:12:12;;;;;;;21.90;9.80;;;;;;;5.33;78.11;99649.84;106083;1274;97963;-74
2022/02/09 08:20:30;;;;;;;22.60;11.30;;;;;;;5.43;78.26;99656.84;106078;1274;97896;-73
2022/02/09 08:33:46;;;;;;;19.00;8.00;;;;;;;5.59;78.24;99653.17;105954;1274;98041;-74
2022/02/09 08:36:17;;;;;;;23.70;10.90;;;;;;;5.64;78.39;99660.70;106043;1274;107927;-74
2022/02/09 08:38:44;;;;;;;22.00;9.90;;;;;;;5.67;78.25;99664.61;106125;1274;98068;-73
2022/02/09 08:41:12;;;;;;;21.80;9.50;;;;;;;5.70;78.13;99658.15;106167;1274;97971;-74
2022/02/09 08:43:40;;;;;;;18.30;8.30;;;;;;;5.76;78.42;99655.77;106037;1274;111279;-74
2022/02/09 08:46:09;;;;;;;18.70;9.20;;;;;;;5.87;78.19;99656.20;106009;1274;97982;-75
2022/02/09 08:48:37;;;;;;;20.50;9.10;;;;;;;5.96;78.51;99649.27;106043;1274;107915;-74
2022/02/09 08:51:05;;;;;;;19.40;9.70;;;;;;;6.05;78.28;99651.91;106135;1274;96190;-73
2022/02/09 08:53:34;;;;;;;22.90;10.50;;;;;;;6.12;78.54;99652.85;106145;1273;97922;-73
2022/02/09 08:56:05;;;;;;;21.60;10.00;;;;;;;6.18;78.25;99650.45;106144;1274;111568;-74
2022/02/09 08:58:33;;;;;;;23.20;11.00;;;;;;;6.25;78.46;99648.73;106171;1274;97874;-74
2022/02/09 09:01:11;;;;;;;23.50;11.30;;;;;;;6.33;78.60;99645.55;106144;1274;107790;-76
2022/02/09 09:03:48;;;;;;;24.70;11.70;;;;;;;6.40;78.50;99653.88;106186;1274;97855;-74
2022/02/09 09:06:21;;;;;;;22.50;11.50;;;;;;;6.44;78.44;99657.05;106148;1274;97950;-74
2022/02/09 10:04:58;;;;;;;18.50;8.20;;;;;;;7.42;78.41;99638.92;106017;1273;111199;-74
2022/02/09 10:33:36;;;;;;;22.40;9.60;;;;;;;7.09;78.23;99646.76;106080;1274;111411;-73
2022/02/09 10:36:17;;;;;;;20.70;9.70;;;;;;;7.05;78.09;99650.65;106066;1274;97973;-74
2022/02/09 10:38:50;;;;;;;19.60;8.80;;;;;;;7.03;78.18;99648.62;105924;1274;108244;-75
2022/02/09 10:41:35;;;;;;;19.60;9.00;;;;;;;7.00;78.27;99646.64;106017;1274;97859;-74
2022/02/09 10:44:15;;;;;;;27.40;13.00;;;;;;;7.02;78.45;99651.86;105977;1274;98047;-75
2022/02/09 10:46:57;;;;;;;20.70;9.30;;;;;;;7.06;78.30;99647.61;105888;1274;112012;-75
2022/02/09 10:49:30;;;;;;;19.80;9.20;;;;;;;7.11;78.51;99649.64;106049;1273;97892;-76
2022/02/09 10:54:29;;;;;;;19.30;9.00;;;;;;;7.22;78.35;99643.98;105997;1273;95282;-75
2022/02/09 10:57:13;;;;;;;20.70;9.60;;;;;;;7.24;78.40;99639.83;105999;1274;97968;-75
2022/02/09 10:59:48;;;;;;;19.00;8.80;;;;;;;7.26;78.41;99641.84;106048;1273;111109;-75
2022/02/09 11:02:17;;;;;;;21.50;9.30;;;;;;;7.32;78.51;99634.88;106069;1274;98118;-75
2022/02/09 11:04:48;;;;;;;19.00;8.20;;;;;;;7.37;78.32;99633.90;106065;1273;107732;-74
2022/02/09 11:07:17;;;;;;;21.90;9.60;;;;;;;7.47;78.48;99635.88;105991;1273;97929;-75
2022/02/09 11:09:49;;;;;;;20.40;8.70;;;;;;;7.58;78.57;99633.19;106044;1274;98580;-74
2022/02/09 11:12:17;;;;;;;20.10;9.20;;;;;;;7.68;78.42;99634.11;106041;1274;111408;-74
2022/02/09 11:14:47;;;;;;;20.90;9.00;;;;;;;7.73;78.36;99634.18;106088;1273;97765;-75
2022/02/09 11:17:19;;;;;;;21.60;9.60;;;;;;;7.77;78.21;99634.86;106045;1273;107686;-75
2022/02/09 11:19:50;;;;;;;20.90;9.00;;;;;;;7.79;78.10;99639.73;106058;1274;95558;-74
2022/02/09 11:22:22;;;;;;;19.70;8.40;;;;;;;7.80;78.05;99640.05;106032;1274;95325;-75
2022/02/09 11:25:14;;;;;;;21.20;9.50;;;;;;;7.84;78.20;99644.59;106021;1274;111236;-75
2022/02/09 11:27:52;;;;;;;18.90;8.30;;;;;;;7.87;78.20;99651.31;106089;1273;97831;-74
2022/02/09 11:30:34;;;;;;;19.60;8.80;;;;;;;7.88;77.99;99649.70;106162;1274;107574;-74
2022/02/09 11:33:23;;;;;;;18.50;8.00;;;;;;;7.89;78.09;99647.14;106031;1273;97831;-75
2022/02/09 11:36:08;;;;;;;17.70;7.50;;;;;;;7.89;78.14;99635.98;106209;1274;95327;-75
2022/02/09 11:38:45;;;;;;;17.60;7.00;;;;;;;7.92;77.97;99632.20;106214;1273;111263;-74
2022/02/09 11:41:18;;;;;;;17.90;8.10;;;;;;;7.97;77.94;99633.31;106144;1274;97987;-75
2022/02/09 11:44:12;;;;;;;17.70;7.70;;;;;;;8.11;78.20;99624.95;106140;1274;107794;-75
2022/02/09 11:47:00;;;;;;;;;;;;;;;8.25;78.21;99624.61;106220;1273;97906;-75
2022/02/09 12:09:41;;;;;;;21.00;9.20;;;;;;;8.27;77.78;99627.81;106143;1273;98001;-75
2022/02/09 12:12:15;;;;;;;21.20;10.20;;;;;;;8.34;77.73;99630.11;106053;1271;107772;-76
2022/02/09 12:17:49;;;;;;;20.00;9.40;;;;;;;8.47;77.73;99630.80;106223;1274;95213;-75
2022/02/09 12:20:29;;;;;;;21.50;9.90;;;;;;;8.50;77.78;99635.48;106224;1274;111275;-76
2022/02/09 12:25:45;;;;;;;21.30;10.40;;;;;;;8.54;77.78;99621.30;106113;1271;107682;-77
2022/02/09 12:28:37;;;;;;;22.70;11.10;;;;;;;8.60;77.70;99619.85;106078;1274;97877;-76
2022/02/09 12:31:07;;;;;;;20.40;9.20;;;;;;;8.57;77.57;99617.77;105859;1274;95998;-76
2022/02/09 12:33:44;;;;;;;20.90;10.40;;;;;;;8.53;77.60;99618.49;105985;1274;111456;-75
2022/02/09 12:36:25;;;;;;;20.20;9.20;;;;;;;8.49;77.60;99617.48;106017;1274;95378;-75
2022/02/09 12:39:03;;;;;;;21.80;10.00;;;;;;;8.49;77.66;99617.50;105965;1273;107787;-75
2022/02/09 12:41:31;;;;;;;20.40;10.20;;;;;;;8.50;77.69;99614.60;105964;1274;96283;-75
2022/02/09 12:44:09;;;;;;;21.60;10.50;;;;;;;8.54;77.73;99619.54;106077;1274;97898;-75
2022/02/09 12:46:41;;;;;;;22.50;10.80;;;;;;;8.57;77.74;99616.70;105994;1274;111135;-76
2022/02/09 12:49:15;;;;;;;22.50;11.20;;;;;;;8.59;77.74;99614.81;105988;1273;97883;-77
2022/02/09 12:51:46;;;;;;;22.70;10.60;;;;;;;8.63;77.70;99615.11;106038;1274;107826;-75
2022/02/09 12:54:17;;;;;;;22.00;11.00;;;;;;;8.66;77.77;99614.97;106035;1274;97989;-75
2022/02/09 12:56:51;;;;;;;23.90;11.20;;;;;;;8.68;77.74;99613.42;105944;1274;97971;-76
2022/02/09 12:59:20;;;;;;;;;;;;;;;8.71;77.53;99615.06;106033;1274;111340;-75
2022/02/09 13:01:57;;;;;;;20.50;9.20;;;;;;;8.67;77.52;99615.98;106064;1274;97930;-75
2022/02/09 13:04:28;;;;;;;21.00;9.50;;;;;;;8.66;77.64;99613.01;106032;1274;107596;-76
2022/02/09 13:06:57;;;;;;;19.60;9.10;;;;;;;8.68;77.55;99615.71;106086;1274;97864;-75
2022/02/09 13:09:26;;;;;;;21.30;9.80;;;;;;;8.69;77.60;99618.66;106100;1274;97992;-75
2022/02/09 13:11:58;;;;;;;22.40;10.10;;;;;;;8.70;77.56;99617.08;105898;1273;111483;-75
2022/02/09 13:14:36;;;;;;;21.50;9.30;;;;;;;8.69;77.56;99619.04;106029;1274;97844;-74
2022/02/09 14:11:33;;;;;;;19.20;8.70;;;;;;;8.59;76.94;99615.15;105694;1281;97058;-74
2022/02/09 14:34:21;;;;;;;19.60;8.20;;;;;;;8.51;76.87;99610.67;106168;1273;98062;-75
2022/02/09 14:55:21;;;;;;;21.60;9.80;;;;;;;8.32;76.34;99616.23;106196;1274;107796;-77
2022/02/09 14:58:04;;;;;;;23.80;10.80;;;;;;;8.29;76.54;99614.98;106104;1273;95271;-74
2022/02/09 15:00:48;;;;;;;23.60;10.80;;;;;;;8.28;76.39;99617.89;106091;1273;97956;-76
2022/02/09 15:06:41;;;;;;;19.70;8.50;;;;;;;8.24;76.56;99618.81;106166;1274;97927;-77
2022/02/09 15:09:20;;;;;;;25.30;11.00;;;;;;;8.20;76.50;99621.15;106031;1273;107794;-78
2022/02/09 15:17:23;;;;;;;18.50;8.20;;;;;;;8.10;76.36;99623.64;106055;1273;111388;-75
2022/02/09 15:22:35;;;;;;;21.00;9.50;;;;;;;7.98;76.32;99628.14;106108;1273;107669;-79
2022/02/09 15:25:17;;;;;;;23.00;10.30;;;;;;;7.95;76.13;99628.33;106179;1273;97865;-75
2022/02/09 15:27:50;;;;;;;21.80;10.30;;;;;;;7.91;76.25;99630.27;105982;1274;98515;-77
2022/02/09 15:30:18;;;;;;;21.10;9.80;;;;;;;7.89;76.54;99628.23;106058;1274;111373;-76
2022/02/09 15:32:51;;;;;;;20.10;10.40;;;;;;;7.88;76.32;99628.46;107723;1274;265512;-74
2022/02/09 15:35:31;;;;;;;22.10;10.60;;;;;;;7.86;76.31;99621.33;107951;1273;107573;-74
2022/02/09 15:38:17;;;;;;;21.60;10.50;;;;;;;7.81;76.15;99631.65;106716;1273;97841;-77
2022/02/09 15:41:03;;;;;;;22.60;10.80;;;;;;;7.76;76.22;99637.25;106087;1274;97882;-78
2022/02/09 15:44:03;;;;;;;22.50;10.40;;;;;;;7.72;76.31;99637.45;106088;1274;112588;-77
2022/02/09 16:06:01;;;;;;;27.50;14.00;;;;;;;7.65;76.38;99639.38;106097;1273;97883;-73
2022/02/09 16:22:01;;;;;;;27.40;14.50;;;;;;;7.66;76.35;99641.98;106162;1274;97890;-73
2022/02/09 16:24:53;;;;;;;31.50;17.10;;;;;;;7.65;76.33;99640.95;106136;1273;111622;-75
2022/02/09 16:38:51;;;;;;;31.10;16.80;;;;;;;7.65;76.21;99644.31;106109;1273;112347;-73
2022/02/09 16:46:56;;;;;;;30.30;16.40;;;;;;;7.65;76.27;99645.21;106123;1274;96917;-74
2022/02/09 16:52:10;;;;;;;29.30;13.20;;;;;;;7.62;76.22;99643.96;106196;1274;112356;-77
2022/02/09 17:21:24;;;;;;;30.80;15.70;;;;;;;7.47;76.30;99637.46;106144;1273;98105;-73
2022/02/09 17:23:57;;;;;;;32.60;15.60;;;;;;;7.46;76.35;99643.34;106076;1273;107578;-73
2022/02/09 17:26:25;;;;;;;28.70;14.60;;;;;;;7.45;76.37;99646.35;106130;1274;97878;-74
2022/02/09 17:29:20;;;;;;;31.00;16.10;;;;;;;7.46;76.37;99647.56;106091;1274;97926;-72
2022/02/09 17:32:00;;;;;;;31.80;17.40;;;;;;;7.47;76.35;99649.29;106074;1273;111256;-72
2022/02/09 17:37:08;;;;;;;33.60;17.70;;;;;;;7.49;76.25;99645.16;106103;1274;108577;-70
2022/02/09 17:53:31;;;;;;;32.80;19.10;;;;;;;7.53;76.39;99656.55;106058;1273;97882;-70
2022/02/09 17:56:13;;;;;;;33.60;20.00;;;;;;;7.55;76.28;99660.16;106150;1273;97857;-70
2022/02/09 17:58:47;;;;;;;35.80;21.10;;;;;;;7.56;76.42;99658.16;106110;1273;111446;-71
2022/02/09 18:01:19;;;;;;;37.20;21.90;;;;;;;7.57;76.31;99655.30;106157;1273;96332;-72
2022/02/09 18:03:53;;;;;;;36.10;22.00;;;;;;;7.56;76.08;99655.52;106118;1273;107886;-70
2022/02/09 18:06:29;;;;;;;34.90;21.10;;;;;;;7.55;76.14;99654.90;106083;1274;97908;-70
2022/02/09 18:09:06;;;;;;;36.80;22.30;;;;;;;7.54;76.11;99647.90;106119;1274;97891;-70
2022/02/09 18:11:52;;;;;;;35.40;20.30;;;;;;;7.53;76.51;99646.51;105940;1274;111409;-70
2022/02/09 18:44:40;;;;;;;34.60;17.90;;;;;;;7.58;76.34;99633.19;105984;1274;108092;-70
2022/02/09 18:47:42;;;;;;;30.90;16.50;;;;;;;7.56;76.34;99630.81;105999;1273;97835;-74
2022/02/09 19:03:54;;;;;;;28.20;13.70;;;;;;;7.48;76.15;99626.64;105996;1273;95469;-71
2022/02/09 19:06:47;;;;;;;25.90;12.70;;;;;;;7.47;76.19;99627.23;106087;1274;111392;-69
2022/02/09 19:30:58;;;;;;;23.90;11.20;;;;;;;7.41;76.13;99624.19;106123;1273;97846;-70
2022/02/09 19:49:54;;;;;;;22.40;10.50;;;;;;;7.42;76.34;99634.52;106136;1273;96157;-69
2022/02/09 19:53:37;;;;;;;21.90;9.90;;;;;;;7.42;76.31;99637.73;106130;1274;107807;-72
2022/02/09 19:57:57;;;;;;;21.10;8.80;;;;;;;7.39;76.16;99638.20;106137;1274;97877;-72
2022/02/09 20:00:29;;;;;;;22.40;8.90;;;;;;;7.39;76.26;99635.77;106218;1273;111051;-71
2022/02/09 20:03:00;;;;;;;23.60;9.30;;;;;;;7.37;76.17;99636.00;106161;1273;97903;-71
2022/02/09 20:05:28;;;;;;;20.70;9.00;;;;;;;7.38;76.28;99635.44;106143;1273;108968;-72
2022/02/09 20:08:03;;;;;;;19.90;8.70;;;;;;;7.39;76.33;99639.11;106047;1273;97856;-71
2022/02/09 20:10:31;;;;;;;23.20;9.80;;;;;;;7.38;76.19;99637.89;106005;1273;97825;-72
2022/02/09 20:12:59;;;;;;;22.80;9.70;;;;;;;7.39;76.04;99643.17;106022;1273;111343;-71
2022/02/09 20:15:27;;;;;;;21.40;8.50;;;;;;;7.37;76.23;99642.19;106013;1273;98052;-71
2022/02/09 20:17:55;;;;;;;20.80;8.50;;;;;;;7.36;76.12;99641.71;105960;1273;107778;-72
2022/02/09 20:20:26;;;;;;;23.00;9.70;;;;;;;7.35;75.97;99644.44;106015;1273;97838;-71
2022/02/09 20:22:58;;;;;;;21.80;9.30;;;;;;;7.35;76.12;99645.09;106013;1273;97880;-70
2022/02/09 20:25:29;;;;;;;20.00;8.50;;;;;;;7.36;75.98;99647.38;105985;1273;111909;-71
2022/02/09 20:27:59;;;;;;;20.70;9.00;;;;;;;7.34;76.11;99646.23;106032;1273;97968;-74
2022/02/09 20:30:40;;;;;;;24.20;10.50;;;;;;;7.34;75.88;99643.77;106022;1273;107645;-71
2022/02/09 20:33:17;;;;;;;27.60;12.50;;;;;;;7.33;76.23;99640.64;106006;1273;97881;-71
2022/02/09 20:35:45;;;;;;;30.90;15.50;;;;;;;7.31;75.93;99644.81;106024;1273;95242;-71
2022/02/09 20:38:18;;;;;;;33.00;16.50;;;;;;;7.29;75.96;99643.64;106118;1273;111174;-72
2022/02/09 20:40:50;;;;;;;33.50;18.00;;;;;;;7.27;76.05;99646.20;106164;1274;97927;-71
2022/02/09 20:43:22;;;;;;;35.70;18.50;;;;;;;7.23;75.90;99650.65;106020;1274;107786;-72
2022/02/09 20:46:00;;;;;;;35.70;18.20;;;;;;;7.17;75.98;99648.66;105938;1277;97849;-71
2022/02/09 20:48:29;;;;;;;32.40;16.80;;;;;;;7.12;75.63;99649.41;106002;1273;96651;-70
2022/02/09 20:51:01;;;;;;;30.00;14.40;;;;;;;7.07;75.84;99651.08;106170;1274;110427;-71
2022/02/09 20:53:34;;;;;;;29.50;14.10;;;;;;;7.03;75.66;99653.38;106025;1274;97871;-71
2022/02/09 20:56:03;;;;;;;29.20;15.00;;;;;;;6.99;75.76;99657.09;105950;1276;107777;-71
2022/02/09 20:58:35;;;;;;;28.30;14.00;;;;;;;6.95;75.67;99655.34;106081;1273;97878;-71
2022/02/09 21:01:10;;;;;;;32.60;15.80;;;;;;;6.90;75.68;99660.55;106043;1273;97882;-71
2022/02/09 21:03:46;;;;;;;29.70;14.20;;;;;;;6.86;75.59;99666.21;106088;1274;111418;-71
2022/02/09 21:20:27;;;;;;;;;;;;;;;6.76;75.90;99670.88;105942;1273;97824;-70
2022/02/09 21:23:14;;;;;;;22.60;10.40;;;;;;;6.74;75.64;99671.87;106012;1274;109194;-71
2022/02/09 21:44:56;;;;;;;20.30;9.10;;;;;;;6.78;75.61;99663.36;106209;1274;111246;-71
2022/02/09 21:53:11;;;;;;;20.30;9.30;;;;;;;6.76;75.53;99656.80;106196;1273;98001;-71
2022/02/09 22:27:45;;;;;;;20.70;10.00;;;;;;;6.48;75.70;99641.86;106105;1277;97768;-71
2022/02/09 22:49:20;;;;;;;23.10;10.40;;;;;;;6.39;75.71;99654.77;106087;1275;98994;-72
2022/02/09 22:54:43;;;;;;;23.90;10.90;;;;;;;6.39;75.44;99654.44;106065;1275;95227;-69
2022/02/09 22:57:13;;;;;;;24.10;10.80;;;;;;;6.38;75.63;99651.83;106101;1274;107401;-74
2022/02/09 22:59:51;;;;;;;21.60;10.80;;;;;;;6.37;75.66;99650.66;106201;1274;95274;-70
2022/02/09 23:02:26;;;;;;;22.60;10.80;;;;;;;6.36;75.66;99645.75;106037;1276;97022;-70
2022/02/09 23:05:26;;;;;;;20.90;9.80;;;;;;;6.37;75.59;99640.77;106125;1277;111404;-71
2022/02/09 23:08:01;;;;;;;20.90;8.80;;;;;;;6.38;75.50;99641.27;106079;1274;95822;-71
2022/02/09 23:53:02;;;;;;;22.30;9.60;;;;;;;6.42;75.67;99630.35;106071;1275;97885;-71
